Aviation Digital Data Service (ADDS)

Output produced by METARs form (0636 UTC 23 October 2014)
found at http://www.aviationweather.gov/adds/metars/
 
KALB 230523Z 2306/2406 01012G20KT 6SM -RA BR OVC028 
     TEMPO 2306/2309 4SM RA BR OVC015 
     FM230900 36010G16KT 4SM -RA BR SCT008 OVC015 
     TEMPO 2309/2313 2SM RA BR OVC008 
     FM231300 35012G20KT 2SM -RA BR OVC008 
     FM231700 35012G20KT 4SM -RA BR SCT008 OVC015